Time;durP1;ratioP1;P1;durP2;ratioP2;P2;SDS_P1;SDS_P2;PMS_P1;PMS_P2;Temp;Humidity;BMP_temperature;BMP_pressure;BME280_temperature;BME280_humidity;BME280_pressure;Samples;Min_cycle;Max_cycle;Signal;HPM_P1;HPM_P2
2022/03/25 00:01:53;;;;;;;59.03;28.10;;;5.40;99.90;;;;;;5034945;28;20418;-62
2022/03/25 00:04:19;;;;;;;49.33;27.37;;;5.40;99.90;;;;;;5033164;28;20457;-66
2022/03/25 00:06:44;;;;;;;43.17;27.07;;;5.40;99.90;;;;;;5034550;28;20225;-65
2022/03/25 00:09:10;;;;;;;49.67;27.07;;;5.40;99.90;;;;;;5034194;28;20190;-62
2022/03/25 00:11:36;;;;;;;51.80;26.93;;;5.40;99.90;;;;;;5034654;28;20198;-62
2022/03/25 00:14:02;;;;;;;52.43;26.73;;;5.30;99.90;;;;;;5034630;28;20167;-62
2022/03/25 00:16:28;;;;;;;47.17;25.87;;;5.30;99.90;;;;;;5034540;28;20979;-67
2022/03/25 00:18:54;;;;;;;48.73;26.80;;;5.30;99.90;;;;;;5033868;28;20313;-66
2022/03/25 00:21:20;;;;;;;51.20;29.83;;;5.30;99.90;;;;;;5034512;28;20719;-62
2022/03/25 00:23:46;;;;;;;55.93;26.10;;;5.20;99.90;;;;;;5034623;28;20755;-66
2022/03/25 00:26:11;;;;;;;78.33;28.63;;;5.20;99.90;;;;;;5034405;28;20414;-62
2022/03/25 00:28:37;;;;;;;52.23;26.47;;;5.20;99.90;;;;;;5033723;28;20171;-63
2022/03/25 00:31:06;;;;;;;50.77;28.27;;;5.10;99.90;;;;;;5034245;28;20183;-63
2022/03/25 00:33:33;;;;;;;54.77;26.93;;;5.10;99.90;;;;;;5034475;28;20406;-66
2022/03/25 00:35:58;;;;;;;48.43;27.57;;;5.00;99.90;;;;;;5034188;28;20465;-66
2022/03/25 00:38:24;;;;;;;50.50;26.07;;;5.00;99.90;;;;;;5034039;28;20786;-63
2022/03/25 00:40:50;;;;;;;47.93;26.40;;;5.00;99.90;;;;;;5033204;28;20251;-67
2022/03/25 00:43:16;;;;;;;53.30;27.47;;;5.00;99.90;;;;;;5033953;28;20255;-62
2022/03/25 00:45:41;;;;;;;67.93;29.87;;;5.00;99.90;;;;;;5034177;28;20182;-66
2022/03/25 00:48:07;;;;;;;63.23;28.27;;;5.00;99.90;;;;;;5034057;28;20414;-66
2022/03/25 00:50:33;;;;;;;49.17;25.80;;;5.00;99.90;;;;;;5033313;28;20229;-62
2022/03/25 00:52:59;;;;;;;42.57;23.80;;;5.00;99.90;;;;;;5033712;28;20425;-65
2022/03/25 00:55:25;;;;;;;51.83;28.13;;;5.00;99.90;;;;;;5033769;28;20402;-66
2022/03/25 00:57:51;;;;;;;55.20;26.77;;;5.00;99.90;;;;;;5033819;28;20163;-66
2022/03/25 01:00:17;;;;;;;44.80;25.33;;;5.00;99.90;;;;;;5033212;28;20394;-66
2022/03/25 01:02:42;;;;;;;55.67;26.20;;;4.90;99.90;;;;;;5033936;28;20191;-62
2022/03/25 01:05:08;;;;;;;56.70;29.60;;;4.90;99.90;;;;;;5033761;28;20195;-63
2022/03/25 01:07:37;;;;;;;57.63;26.90;;;4.90;99.90;;;;;;5033502;28;20209;-66
2022/03/25 01:10:03;;;;;;;49.60;27.13;;;4.80;99.90;;;;;;5033153;28;20196;-66
2022/03/25 01:12:28;;;;;;;54.27;28.17;;;4.80;99.90;;;;;;5033599;28;20998;-66
2022/03/25 01:14:54;;;;;;;55.33;25.77;;;4.80;99.90;;;;;;5033670;28;20494;-65
2022/03/25 01:17:20;;;;;;;58.00;26.43;;;4.80;99.90;;;;;;5033488;28;20205;-65
2022/03/25 01:19:46;;;;;;;46.33;25.97;;;4.70;99.90;;;;;;5033023;28;20170;-62
2022/03/25 01:22:12;;;;;;;51.33;26.33;;;4.70;99.90;;;;;;5033470;28;20605;-66
2022/03/25 01:24:38;;;;;;;48.53;25.23;;;4.70;99.90;;;;;;5033586;28;20486;-64
2022/03/25 01:27:04;;;;;;;70.23;30.47;;;4.60;99.90;;;;;;5033405;28;20506;-65
2022/03/25 01:29:30;;;;;;;54.03;26.97;;;4.70;99.90;;;;;;5032659;28;20186;-62
2022/03/25 01:31:56;;;;;;;55.70;26.73;;;4.70;99.90;;;;;;5033439;28;20418;-66
2022/03/25 01:34:22;;;;;;;55.73;27.37;;;4.60;99.90;;;;;;5033365;28;20408;-62
2022/03/25 01:36:48;;;;;;;57.53;27.50;;;4.60;99.90;;;;;;5033195;28;20462;-63
2022/03/25 01:39:14;;;;;;;54.33;25.77;;;4.60;99.90;;;;;;5032582;28;20570;-65
2022/03/25 01:41:40;;;;;;;45.90;27.00;;;4.60;99.90;;;;;;5033129;28;20951;-65
2022/03/25 01:44:09;;;;;;;58.67;26.20;;;4.60;99.90;;;;;;5033405;28;20891;-62
2022/03/25 01:46:34;;;;;;;55.47;28.13;;;4.60;99.90;;;;;;5033183;28;20441;-66
2022/03/25 01:49:00;;;;;;;59.03;26.00;;;4.50;99.90;;;;;;5032581;28;20818;-62
2022/03/25 01:51:32;;;;;;;55.37;26.10;;;4.50;99.90;;;;;;5033633;28;20591;-62
2022/03/25 01:54:06;;;;;;;52.93;25.87;;;4.40;99.90;;;;;;5037245;28;20228;-66
2022/03/25 01:56:32;;;;;;;59.30;29.00;;;4.40;99.90;;;;;;5037296;28;20854;-66
2022/03/25 01:58:57;;;;;;;54.07;27.07;;;4.40;99.90;;;;;;5035578;28;20416;-62
2022/03/25 02:01:25;;;;;;;50.93;27.80;;;4.30;99.90;;;;;;5035750;28;20192;-63
2022/03/25 02:03:50;;;;;;;52.33;26.00;;;4.30;99.90;;;;;;5037149;28;20536;-67
2022/03/25 02:06:16;;;;;;;51.87;27.07;;;4.30;99.90;;;;;;5037265;28;20512;-62
2022/03/25 02:08:42;;;;;;;47.27;25.10;;;4.20;99.90;;;;;;5036344;28;20257;-62
2022/03/25 02:11:09;;;;;;;44.30;24.77;;;4.20;99.90;;;;;;5036990;28;20173;-63
2022/03/25 02:13:35;;;;;;;62.83;27.90;;;4.20;99.90;;;;;;5035761;28;20584;-63
2022/03/25 02:16:01;;;;;;;50.80;27.90;;;4.20;99.90;;;;;;5036876;28;20462;-63
2022/03/25 02:18:26;;;;;;;54.80;25.07;;;4.20;99.90;;;;;;5036823;28;20469;-63
2022/03/25 02:20:52;;;;;;;49.03;25.77;;;4.20;99.90;;;;;;5036291;28;20174;-62
2022/03/25 02:23:17;;;;;;;52.10;23.97;;;4.20;99.90;;;;;;5036697;28;20191;-68
2022/03/25 02:25:44;;;;;;;58.03;28.17;;;4.20;99.90;;;;;;5036633;28;20170;-69
2022/03/25 02:28:10;;;;;;;48.73;27.80;;;4.20;99.90;;;;;;5036702;28;20168;-68
2022/03/25 02:30:37;;;;;;;47.23;24.60;;;4.10;99.90;;;;;;5036008;28;20407;-68
2022/03/25 02:33:07;;;;;;;54.27;28.57;;;4.10;99.90;;;;;;5036455;28;20439;-66
2022/03/25 02:35:41;;;;;;;48.70;26.17;;;4.10;99.90;;;;;;5036462;28;20429;-63
2022/03/25 02:38:08;;;;;;;50.93;27.53;;;4.10;99.90;;;;;;5036389;28;20407;-68
2022/03/25 02:40:34;;;;;;;61.00;28.97;;;4.10;99.90;;;;;;5034794;28;20466;-68
2022/03/25 02:43:00;;;;;;;54.77;28.00;;;4.10;99.90;;;;;;5035061;28;20802;-64
2022/03/25 02:45:25;;;;;;;57.17;27.77;;;4.10;99.90;;;;;;5036298;28;20616;-64
2022/03/25 02:47:51;;;;;;;50.37;28.20;;;4.10;99.90;;;;;;5036175;28;20211;-64
2022/03/25 02:50:17;;;;;;;44.63;25.77;;;4.10;99.90;;;;;;5035778;28;20640;-65
2022/03/25 02:52:43;;;;;;;50.53;27.00;;;4.10;99.90;;;;;;5036256;28;20533;-68
2022/03/25 02:55:09;;;;;;;57.97;28.20;;;4.20;99.90;;;;;;5036374;28;20168;-68
2022/03/25 02:57:35;;;;;;;58.50;27.30;;;4.10;99.90;;;;;;5036028;28;20464;-64
2022/03/25 03:00:04;;;;;;;57.27;27.73;;;4.10;99.90;;;;;;5035336;28;20489;-65
2022/03/25 03:02:29;;;;;;;57.87;27.43;;;4.00;99.90;;;;;;5035900;28;20422;-69
2022/03/25 03:04:55;;;;;;;51.00;26.33;;;3.90;99.90;;;;;;5036179;28;20443;-64
2022/03/25 03:07:21;;;;;;;48.37;25.40;;;3.90;99.90;;;;;;5035961;28;20243;-64
2022/03/25 03:09:46;;;;;;;45.40;25.70;;;3.80;99.90;;;;;;5035552;28;20675;-68
2022/03/25 03:12:13;;;;;;;59.17;29.50;;;3.80;99.90;;;;;;5035671;28;20229;-65
2022/03/25 03:14:39;;;;;;;46.87;23.47;;;3.70;99.90;;;;;;5035805;28;20216;-67
2022/03/25 03:17:04;;;;;;;53.93;28.30;;;3.70;99.90;;;;;;5036002;28;20445;-64
2022/03/25 03:19:31;;;;;;;48.27;24.80;;;3.70;99.90;;;;;;5035195;28;20390;-68
2022/03/25 03:21:57;;;;;;;51.87;24.97;;;3.70;99.90;;;;;;5035742;28;20210;-67
2022/03/25 03:24:23;;;;;;;49.47;27.17;;;3.70;99.90;;;;;;5035586;28;20768;-64
2022/03/25 03:26:49;;;;;;;59.43;28.93;;;3.60;99.90;;;;;;5035669;28;20454;-64
2022/03/25 03:29:15;;;;;;;50.03;25.87;;;3.60;99.90;;;;;;5034968;28;20834;-65
2022/03/25 03:31:40;;;;;;;49.20;23.90;;;3.60;99.90;;;;;;5035625;28;20619;-68
2022/03/25 03:34:06;;;;;;;49.73;27.60;;;3.60;99.90;;;;;;5035435;28;20176;-65
2022/03/25 03:36:32;;;;;;;48.83;25.60;;;3.60;99.90;;;;;;5035286;28;20668;-68
2022/03/25 03:38:57;;;;;;;52.10;26.53;;;3.60;99.90;;;;;;5034882;28;20171;-64
2022/03/25 03:41:25;;;;;;;61.07;27.50;;;3.60;99.90;;;;;;5035317;28;20931;-64
2022/03/25 03:43:51;;;;;;;48.47;25.90;;;3.50;99.90;;;;;;5035267;28;20163;-69
2022/03/25 03:46:16;;;;;;;51.57;25.30;;;3.50;99.90;;;;;;5034086;28;20933;-65
2022/03/25 03:48:42;;;;;;;53.33;27.33;;;3.50;99.90;;;;;;5033453;28;20172;-64
2022/03/25 03:51:08;;;;;;;44.57;25.00;;;3.60;99.90;;;;;;5035187;28;20170;-68
2022/03/25 03:53:34;;;;;;;53.77;26.60;;;3.60;99.90;;;;;;5035062;28;20494;-64
2022/03/25 03:56:00;;;;;;;50.93;24.70;;;3.60;99.90;;;;;;5034994;28;20672;-68
2022/03/25 03:58:25;;;;;;;46.83;23.17;;;3.60;99.90;;;;;;5034816;28;20168;-68
2022/03/25 04:00:51;;;;;;;54.53;26.23;;;3.60;99.90;;;;;;5034373;28;20643;-67
2022/03/25 04:03:16;;;;;;;47.80;26.23;;;3.60;99.90;;;;;;5034857;28;20673;-64
2022/03/25 04:05:44;;;;;;;51.40;27.40;;;3.50;99.90;;;;;;5034918;28;20180;-69
2022/03/25 04:08:09;;;;;;;50.60;27.10;;;3.50;99.90;;;;;;5034988;28;20265;-68
2022/03/25 04:10:35;;;;;;;46.60;27.27;;;3.50;99.90;;;;;;5034136;28;20400;-65
2022/03/25 04:13:01;;;;;;;50.53;25.13;;;3.50;99.90;;;;;;5034691;28;20197;-69
2022/03/25 04:15:27;;;;;;;61.47;26.80;;;3.50;99.90;;;;;;5034246;28;20402;-64
2022/03/25 04:17:52;;;;;;;54.53;26.83;;;3.40;99.90;;;;;;5034737;28;20518;-69
2022/03/25 04:20:18;;;;;;;49.13;25.00;;;3.50;99.90;;;;;;5034096;28;20167;-64
2022/03/25 04:22:45;;;;;;;58.97;28.20;;;3.50;99.90;;;;;;5034416;28;20599;-68
2022/03/25 04:25:13;;;;;;;54.83;28.50;;;3.50;99.90;;;;;;5034491;28;20234;-68
2022/03/25 04:27:53;;;;;;;57.37;27.60;;;3.50;99.90;;;;;;5034490;28;20908;-67
2022/03/25 04:30:23;;;;;;;52.43;27.43;;;3.50;99.90;;;;;;5033859;28;20406;-68
2022/03/25 04:32:49;;;;;;;45.53;27.70;;;3.50;99.90;;;;;;5032934;28;20851;-65
2022/03/25 04:35:15;;;;;;;52.53;27.40;;;3.50;99.90;;;;;;5034305;28;20438;-68
2022/03/25 04:37:41;;;;;;;58.83;26.90;;;3.40;99.90;;;;;;5034139;28;20458;-64
2022/03/25 04:40:13;;;;;;;51.20;26.80;;;3.40;99.90;;;;;;5033473;28;20160;-68
2022/03/25 04:42:39;;;;;;;52.97;28.53;;;3.40;99.90;;;;;;5034017;28;20433;-67
2022/03/25 04:45:05;;;;;;;62.50;30.60;;;3.40;99.90;;;;;;5033978;28;20399;-65
2022/03/25 04:47:31;;;;;;;52.33;26.47;;;3.30;99.90;;;;;;5034207;28;20694;-68
2022/03/25 04:49:56;;;;;;;61.60;30.37;;;3.30;99.90;;;;;;5033560;28;20445;-68
2022/03/25 04:52:22;;;;;;;78.67;28.07;;;3.30;99.90;;;;;;5033964;28;20188;-64
2022/03/25 04:54:47;;;;;;;49.90;28.77;;;3.30;99.90;;;;;;5033837;28;20169;-65
2022/03/25 04:57:13;;;;;;;49.63;26.97;;;3.30;99.90;;;;;;5033757;28;20533;-67
2022/03/25 04:59:38;;;;;;;56.37;28.27;;;3.30;99.90;;;;;;5033208;28;20214;-68
2022/03/25 05:02:04;;;;;;;56.57;29.27;;;3.30;99.90;;;;;;5033834;28;20214;-64
2022/03/25 05:04:30;;;;;;;51.47;27.60;;;3.30;99.90;;;;;;5033778;28;20246;-64
2022/03/25 05:06:55;;;;;;;52.23;28.40;;;3.40;99.90;;;;;;5033621;28;20195;-67
2022/03/25 05:09:21;;;;;;;54.50;27.40;;;3.40;99.90;;;;;;5032971;28;20167;-67
2022/03/25 05:11:46;;;;;;;49.60;26.80;;;3.40;99.90;;;;;;5033759;28;20651;-67
2022/03/25 05:14:13;;;;;;;54.67;26.70;;;3.40;99.90;;;;;;5032685;28;20176;-64
2022/03/25 05:16:39;;;;;;;53.07;28.00;;;3.40;99.90;;;;;;5033498;28;20660;-68
2022/03/25 05:19:05;;;;;;;56.03;28.73;;;3.40;99.90;;;;;;5032888;28;20401;-69
2022/03/25 05:21:30;;;;;;;56.30;28.47;;;3.40;99.90;;;;;;5033520;28;20631;-64
2022/03/25 05:23:56;;;;;;;57.80;28.10;;;3.40;99.90;;;;;;5033570;28;20426;-65
2022/03/25 05:26:21;;;;;;;46.97;25.63;;;3.40;99.90;;;;;;5032600;28;20252;-64
2022/03/25 05:28:47;;;;;;;52.57;27.30;;;3.40;99.90;;;;;;5032850;28;20193;-64
2022/03/25 05:31:13;;;;;;;60.00;29.53;;;3.30;99.90;;;;;;5033338;28;20218;-67
2022/03/25 05:33:39;;;;;;;48.23;26.90;;;3.30;99.90;;;;;;5033395;28;20839;-68
2022/03/25 05:36:05;;;;;;;56.83;26.37;;;3.30;99.90;;;;;;5032276;28;20461;-64
2022/03/25 05:38:31;;;;;;;54.80;28.10;;;3.30;99.90;;;;;;5032718;28;20163;-69
2022/03/25 05:40:57;;;;;;;61.20;30.40;;;3.30;99.90;;;;;;5033305;28;20869;-67
2022/03/25 05:43:22;;;;;;;52.07;25.73;;;3.40;99.90;;;;;;5033201;28;20171;-67
2022/03/25 05:45:48;;;;;;;47.93;25.50;;;3.40;99.90;;;;;;5033268;28;20398;-64
2022/03/25 05:48:14;;;;;;;46.20;23.97;;;3.40;99.90;;;;;;5033379;28;20168;-64
2022/03/25 05:50:39;;;;;;;53.43;26.20;;;3.40;99.90;;;;;;5032591;28;20586;-68
2022/03/25 05:53:05;;;;;;;52.13;28.00;;;3.40;99.90;;;;;;5033089;28;20187;-64
2022/03/25 05:55:32;;;;;;;41.97;24.70;;;3.40;99.90;;;;;;5033000;28;20195;-65
2022/03/25 05:57:58;;;;;;;48.00;24.47;;;3.40;99.90;;;;;;5033308;28;20834;-68
2022/03/25 06:00:23;;;;;;;57.03;24.43;;;3.40;1.00;;;;;;5032488;28;20441;-64
2022/03/25 06:02:49;;;;;;;52.60;27.00;;;3.50;1.00;;;;;;5033156;28;20188;-64
2022/03/25 06:05:15;;;;;;;51.20;27.97;;;3.50;1.00;;;;;;5033225;28;20184;-69
2022/03/25 06:07:42;;;;;;;50.10;24.97;;;3.60;1.00;;;;;;5032879;28;20239;-65
2022/03/25 06:10:09;;;;;;;58.57;27.47;;;3.60;1.00;;;;;;5032454;28;20938;-68
2022/03/25 06:12:36;;;;;;;59.33;29.00;;;3.60;1.00;;;;;;5033096;28;20427;-64
2022/03/25 06:15:02;;;;;;;58.27;30.70;;;3.60;1.00;;;;;;5033193;28;20407;-68
2022/03/25 06:17:28;;;;;;;68.07;30.50;;;3.70;1.00;;;;;;5033000;28;20475;-69
2022/03/25 06:19:54;;;;;;;61.93;31.80;;;3.80;1.00;;;;;;5032271;28;20455;-64
2022/03/25 06:22:19;;;;;;;50.43;27.37;;;3.90;1.00;;;;;;5033258;28;20619;-64
2022/03/25 06:24:45;;;;;;;56.67;31.50;;;3.90;1.00;;;;;;5033045;28;20252;-65
2022/03/25 06:27:11;;;;;;;57.17;31.60;;;4.00;1.00;;;;;;5032977;28;20258;-69
2022/03/25 06:29:38;;;;;;;56.43;28.57;;;4.10;1.00;;;;;;5032356;28;20254;-65
2022/03/25 06:32:05;;;;;;;57.97;29.60;;;4.10;1.00;;;;;;5032820;28;20475;-66
2022/03/25 06:34:31;;;;;;;49.63;26.83;;;4.20;1.00;;;;;;5032953;28;20879;-65
2022/03/25 06:36:57;;;;;;;60.03;31.03;;;4.30;1.00;;;;;;5032691;28;20466;-64
2022/03/25 06:39:22;;;;;;;58.50;30.93;;;4.30;1.00;;;;;;5035812;28;20249;-68
2022/03/25 06:41:48;;;;;;;57.17;29.53;;;4.40;1.00;;;;;;5036338;28;20192;-62
2022/03/25 06:44:13;;;;;;;58.93;29.77;;;4.50;1.00;;;;;;5036319;28;20683;-66
2022/03/25 06:46:39;;;;;;;54.40;28.20;;;4.60;1.00;;;;;;5036477;28;20175;-66
2022/03/25 06:49:05;;;;;;;62.40;29.77;;;4.70;1.00;;;;;;5035660;28;20176;-63
2022/03/25 06:51:31;;;;;;;57.07;29.10;;;4.90;1.00;;;;;;5036115;28;20222;-63
2022/03/25 06:53:57;;;;;;;47.30;27.83;;;5.00;1.00;;;;;;5036038;28;20410;-63
2022/03/25 06:56:23;;;;;;;57.47;27.40;;;5.20;1.00;;;;;;5035924;28;20463;-63
2022/03/25 06:58:49;;;;;;;61.97;27.27;;;5.30;1.00;;;;;;5035563;28;20768;-63
2022/03/25 07:01:16;;;;;;;54.67;29.17;;;5.40;1.00;;;;;;5036114;28;20430;-63
2022/03/25 07:03:42;;;;;;;62.03;30.10;;;5.60;1.00;;;;;;5035975;28;20164;-66
2022/03/25 07:06:09;;;;;;;51.87;26.53;;;5.70;1.00;;;;;;5035728;28;20487;-67
2022/03/25 07:08:35;;;;;;;54.40;28.33;;;5.80;1.00;;;;;;5034007;28;20175;-68
2022/03/25 07:11:01;;;;;;;49.00;27.97;;;5.80;1.00;;;;;;5036011;28;20502;-67
2022/03/25 07:13:27;;;;;;;45.10;25.67;;;6.00;1.00;;;;;;5036031;28;20820;-67
2022/03/25 07:15:54;;;;;;;50.27;25.60;;;6.20;1.00;;;;;;5035847;28;20548;-63
2022/03/25 07:18:20;;;;;;;54.93;26.20;;;6.30;1.00;;;;;;5035755;28;20414;-66
2022/03/25 07:20:45;;;;;;;41.43;24.80;;;6.50;1.00;;;;;;5034141;28;20444;-63
2022/03/25 07:23:11;;;;;;;47.20;23.60;;;6.60;99.90;;;;;;5035641;28;20217;-62
2022/03/25 07:25:37;;;;;;;61.47;26.10;;;6.70;99.90;;;;;;5035745;28;20167;-66
2022/03/25 07:28:03;;;;;;;43.33;23.70;;;6.90;99.90;;;;;;5035661;28;20202;-65
2022/03/25 07:30:28;;;;;;;46.93;25.20;;;7.10;99.90;;;;;;5034898;28;20171;-62
2022/03/25 07:32:54;;;;;;;46.17;23.10;;;7.20;99.90;;;;;;5035510;28;20463;-66
2022/03/25 07:35:21;;;;;;;39.00;22.10;;;7.40;99.90;;;;;;5035528;28;20171;-62
2022/03/25 07:37:47;;;;;;;41.77;23.03;;;7.50;99.90;;;;;;5035413;28;20198;-66
2022/03/25 07:40:14;;;;;;;53.40;25.17;;;7.60;99.90;;;;;;5034725;28;20405;-62
2022/03/25 07:42:41;;;;;;;41.17;21.77;;;7.70;99.90;;;;;;5035274;28;20427;-66
2022/03/25 07:45:09;;;;;;;40.93;22.10;;;7.90;99.90;;;;;;5035285;28;20949;-68
2022/03/25 07:47:42;;;;;;;29.43;19.20;;;8.00;99.90;;;;;;5035200;28;20762;-66
2022/03/25 07:50:10;;;;;;;30.73;17.63;;;8.20;99.90;;;;;;5033556;28;20404;-65
2022/03/25 07:52:36;;;;;;;32.17;16.17;;;8.30;99.90;;;;;;5034987;28;20446;-64
2022/03/25 07:55:02;;;;;;;34.53;18.30;;;8.50;99.90;;;;;;5035320;28;20886;-64
2022/03/25 07:57:28;;;;;;;29.97;15.80;;;8.60;99.90;;;;;;5035052;28;20219;-68
2022/03/25 07:59:53;;;;;;;28.70;16.80;;;8.80;99.90;;;;;;5034304;28;20416;-68
2022/03/25 08:02:19;;;;;;;19.43;13.90;;;8.90;99.90;;;;;;5034737;28;20960;-65
2022/03/25 08:04:44;;;;;;;23.77;14.40;;;9.00;99.90;;;;;;5034851;28;20183;-69
2022/03/25 08:07:10;;;;;;;26.40;14.27;;;9.10;99.90;;;;;;5034932;28;20572;-70
2022/03/25 08:09:35;;;;;;;23.13;14.90;;;9.20;99.90;;;;;;5034281;28;20213;-69
2022/03/25 08:12:02;;;;;;;29.03;13.47;;;9.40;99.90;;;;;;5034602;28;20233;-69
2022/03/25 08:14:29;;;;;;;30.67;16.03;;;9.60;99.90;;;;;;5034863;28;20170;-64
2022/03/25 08:16:54;;;;;;;27.07;16.17;;;9.70;99.90;;;;;;5034664;28;20489;-69
2022/03/25 08:19:20;;;;;;;25.73;14.73;;;9.80;99.90;;;;;;5033975;28;20433;-65
2022/03/25 08:21:46;;;;;;;31.20;17.50;;;9.90;99.90;;;;;;5034701;28;20594;-69
2022/03/25 08:29:39;;;;;;;30.93;15.83;;;10.30;99.90;;;;;;5033932;28;20468;-68
2022/03/25 08:32:06;;;;;;;27.83;15.53;;;10.50;99.90;;;;;;5034499;28;20418;-64
2022/03/25 08:34:31;;;;;;;24.73;13.07;;;10.60;99.90;;;;;;5034387;28;20171;-65
2022/03/25 08:36:57;;;;;;;24.53;14.40;;;10.80;99.90;;;;;;5034110;28;20461;-65
2022/03/25 08:39:23;;;;;;;32.30;15.00;;;10.90;99.90;;;;;;5033679;28;20651;-68
2022/03/25 08:41:48;;;;;;;32.10;14.93;;;11.10;99.90;;;;;;5034171;28;20218;-65
2022/03/25 08:44:14;;;;;;;26.00;14.77;;;11.20;99.90;;;;;;5034147;28;20203;-64
2022/03/25 08:46:40;;;;;;;29.87;15.13;;;11.30;99.90;;;;;;5034124;28;20590;-65
2022/03/25 08:49:07;;;;;;;29.70;15.57;;;11.60;99.90;;;;;;5033435;28;20434;-68
2022/03/25 08:51:33;;;;;;;20.23;12.70;;;11.80;99.90;;;;;;5033928;28;20401;-65
2022/03/25 08:53:58;;;;;;;19.67;12.13;;;11.90;99.90;;;;;;5034062;28;20373;-64
2022/03/25 08:56:25;;;;;;;13.77;9.63;;;12.10;99.90;;;;;;5033785;28;20191;-68
2022/03/25 08:58:54;;;;;;;16.23;8.83;;;12.40;99.90;;;;;;5033112;28;20164;-66
2022/03/25 09:01:20;;;;;;;19.53;9.30;;;12.60;99.90;;;;;;5033582;28;20392;-68
2022/03/25 09:03:46;;;;;;;13.40;7.37;;;12.80;99.90;;;;;;5033858;28;20377;-64
2022/03/25 09:06:12;;;;;;;12.00;6.17;;;13.10;99.90;;;;;;5033755;28;20530;-65
2022/03/25 09:08:38;;;;;;;17.17;7.47;;;13.20;99.90;;;;;;5033074;28;20381;-69
2022/03/25 09:11:03;;;;;;;11.47;6.33;;;13.40;99.90;;;;;;5033434;28;20472;-68
2022/03/25 09:13:29;;;;;;;14.53;7.40;;;13.50;99.90;;;;;;5033863;28;20213;-65
2022/03/25 09:15:55;;;;;;;14.10;7.10;;;13.70;99.90;;;;;;5032284;28;20195;-66
2022/03/25 09:18:21;;;;;;;10.70;6.40;;;13.90;99.90;;;;;;5033575;28;20171;-67
2022/03/25 09:20:47;;;;;;;17.40;6.60;;;14.10;99.90;;;;;;5033163;28;20537;-66
2022/03/25 09:23:13;;;;;;;12.77;6.13;;;14.30;99.90;;;;;;5033297;28;20192;-70
2022/03/25 09:25:39;;;;;;;11.20;4.97;;;14.50;99.90;;;;;;5033736;28;20377;-69
2022/03/25 09:28:05;;;;;;;10.90;5.10;;;14.70;99.90;;;;;;5033463;28;20164;-65
2022/03/25 09:30:31;;;;;;;10.87;6.40;;;15.00;99.90;;;;;;5032904;28;20525;-70
2022/03/25 09:32:57;;;;;;;9.67;5.53;;;15.30;99.90;;;;;;5033443;28;20393;-66
2022/03/25 09:35:23;;;;;;;14.77;8.20;;;15.60;96.70;;;;;;5033351;28;20435;-70
2022/03/25 09:37:51;;;;;;;16.10;7.17;;;15.90;94.20;;;;;;5033400;28;20458;-65
2022/03/25 09:40:23;;;;;;;15.23;7.63;;;16.10;94.30;;;;;;5032712;28;20194;-65
2022/03/25 09:42:51;;;;;;;12.50;8.20;;;16.30;94.40;;;;;;5033284;28;20410;-65
2022/03/25 09:45:18;;;;;;;11.07;8.00;;;16.40;94.40;;;;;;5033201;28;20380;-70
2022/03/25 09:47:46;;;;;;;19.10;10.03;;;16.70;94.50;;;;;;5033394;28;20442;-69
2022/03/25 09:50:16;;;;;;;17.50;9.90;;;16.90;94.60;;;;;;5032579;28;20377;-69
2022/03/25 09:52:43;;;;;;;16.50;8.80;;;17.00;94.60;;;;;;5033111;28;20787;-69
2022/03/25 09:55:09;;;;;;;18.50;10.33;;;17.30;94.70;;;;;;5033189;28;20405;-70
2022/03/25 09:57:36;;;;;;;22.97;12.77;;;17.50;94.80;;;;;;5033037;28;20811;-70
2022/03/25 10:00:05;;;;;;;22.83;12.20;;;17.50;94.80;;;;;;5032457;28;20403;-69
2022/03/25 10:02:31;;;;;;;19.43;11.13;;;17.50;94.80;;;;;;5032972;28;20430;-65
2022/03/25 10:04:57;;;;;;;19.33;10.93;;;17.80;94.90;;;;;;5032836;28;20381;-70
2022/03/25 10:07:30;;;;;;;24.13;12.80;;;18.20;92.50;;;;;;5032290;28;20768;-66
2022/03/25 10:10:13;;;;;;;22.43;11.33;;;18.30;88.20;;;;;;5032200;28;21014;-65
2022/03/25 10:12:42;;;;;;;23.23;12.90;;;18.50;89.90;;;;;;5033725;28;20425;-65
2022/03/25 10:15:25;;;;;;;22.07;11.60;;;18.80;88.80;;;;;;5036508;28;20418;-70
2022/03/25 10:17:54;;;;;;;24.20;12.40;;;19.00;85.10;;;;;;5036303;28;20481;-66
2022/03/25 10:20:29;;;;;;;23.63;11.17;;;18.90;82.30;;;;;;5035956;28;20398;-70
2022/03/25 10:23:06;;;;;;;20.53;11.80;;;19.00;84.90;;;;;;5036501;28;20426;-70
2022/03/25 10:25:48;;;;;;;21.73;13.00;;;19.20;81.30;;;;;;5036350;28;20473;-71
2022/03/25 10:28:24;;;;;;;20.20;11.80;;;19.40;76.80;;;;;;5036352;28;20724;-70
2022/03/25 10:30:52;;;;;;;23.27;12.47;;;19.50;78.50;;;;;;5036065;28;20416;-70
2022/03/25 10:33:34;;;;;;;24.50;13.37;;;19.70;75.90;;;;;;5034810;28;20756;-70
2022/03/25 10:36:09;;;;;;;19.33;12.47;;;19.70;71.30;;;;;;5036576;28;20480;-66
2022/03/25 10:38:49;;;;;;;26.40;13.13;;;19.90;71.80;;;;;;5035920;28;20406;-71
2022/03/25 10:41:18;;;;;;;25.27;12.93;;;19.90;68.00;;;;;;5036491;28;20501;-69
2022/03/25 10:43:59;;;;;;;21.90;12.20;;;20.00;72.00;;;;;;5036409;28;20453;-66
2022/03/25 10:46:27;;;;;;;25.40;14.13;;;20.20;68.50;;;;;;5036315;28;20402;-65
2022/03/25 10:48:53;;;;;;;24.73;12.93;;;20.40;67.80;;;;;;5035697;28;20395;-71
2022/03/25 10:51:19;;;;;;;21.93;13.67;;;20.60;65.90;;;;;;5036277;28;20418;-65
2022/03/25 10:53:47;;;;;;;19.50;12.43;;;20.80;62.80;;;;;;5036173;28;20452;-66
2022/03/25 10:56:15;;;;;;;21.20;11.90;;;20.70;63.10;;;;;;5036133;28;20195;-66
2022/03/25 10:58:52;;;;;;;25.13;12.43;;;20.50;61.20;;;;;;5035701;28;20407;-66
2022/03/25 11:01:18;;;;;;;21.60;12.60;;;20.50;57.80;;;;;;5034757;28;20430;-69
2022/03/25 11:03:45;;;;;;;18.27;12.20;;;20.30;55.70;;;;;;5035956;28;20417;-70
2022/03/25 11:06:15;;;;;;;28.10;13.67;;;20.00;56.50;;;;;;5035860;28;20191;-70
2022/03/25 11:08:43;;;;;;;24.33;14.57;;;19.80;56.50;;;;;;5035286;28;20925;-70
2022/03/25 11:11:09;;;;;;;23.40;14.03;;;19.60;58.00;;;;;;5035865;28;20402;-70
2022/03/25 11:13:35;;;;;;;27.17;13.40;;;19.40;54.10;;;;;;5035970;28;20895;-65
2022/03/25 11:16:02;;;;;;;22.97;13.17;;;19.30;50.60;;;;;;5035620;28;20450;-66
2022/03/25 11:18:29;;;;;;;25.90;11.97;;;19.20;48.40;;;;;;5035585;28;20271;-70
2022/03/25 11:20:59;;;;;;;28.87;14.77;;;19.20;48.40;;;;;;5035737;28;20390;-69
2022/03/25 11:23:47;;;;;;;26.77;13.97;;;19.70;57.20;;;;;;5035740;28;20452;-65
2022/03/25 11:26:16;;;;;;;24.40;13.10;;;20.10;59.60;;;;;;5035662;28;20406;-65
2022/03/25 11:28:44;;;;;;;29.43;14.73;;;20.40;54.50;;;;;;5035082;28;20485;-65
2022/03/25 11:31:10;;;;;;;24.07;14.43;;;20.80;51.00;;;;;;5035517;28;20406;-70
2022/03/25 11:34:05;;;;;;;25.77;13.83;;;21.00;50.10;;;;;;5035561;28;20493;-70
2022/03/25 11:36:31;;;;;;;17.63;12.77;;;21.10;48.80;;;;;;5035467;28;20257;-65
2022/03/25 11:39:21;;;;;;;27.60;13.77;;;21.20;50.40;;;;;;5034941;28;20411;-66
2022/03/25 11:41:47;;;;;;;23.87;13.77;;;21.20;47.70;;;;;;5035281;28;20417;-65
2022/03/25 11:44:20;;;;;;;24.03;13.60;;;20.80;44.40;;;;;;5035265;28;20422;-69
2022/03/25 11:46:58;;;;;;;25.70;12.40;;;20.60;44.50;;;;;;5034278;28;20456;-71
2022/03/25 11:49:26;;;;;;;33.33;13.33;;;20.50;48.80;;;;;;5034564;28;20447;-66
2022/03/25 11:51:52;;;;;;;24.90;14.40;;;20.10;43.80;;;;;;5035212;28;20406;-65
2022/03/25 11:54:40;;;;;;;20.90;14.20;;;19.70;41.50;;;;;;5035111;28;20391;-66
2022/03/25 11:57:26;;;;;;;28.27;13.57;;;19.70;47.90;;;;;;5035044;28;20525;-71
2022/03/25 11:59:54;;;;;;;22.57;13.63;;;19.80;42.10;;;;;;5034336;28;20406;-70
2022/03/25 12:02:32;;;;;;;36.10;13.40;;;20.30;44.60;;;;;;5034826;28;20447;-66
2022/03/25 12:05:03;;;;;;;23.87;14.47;;;20.80;42.70;;;;;;5035058;28;20404;-70
2022/03/25 12:07:32;;;;;;;24.20;13.90;;;20.80;40.80;;;;;;5034826;28;20434;-66
2022/03/25 12:09:58;;;;;;;24.53;14.20;;;21.00;45.10;;;;;;5034233;28;20502;-70
2022/03/25 12:12:54;;;;;;;25.23;15.63;;;21.20;41.60;;;;;;5035053;28;20418;-66
2022/03/25 12:15:20;;;;;;;25.20;14.03;;;21.90;40.90;;;;;;5034708;28;20415;-65
2022/03/25 12:17:47;;;;;;;31.00;15.50;;;22.80;42.90;;;;;;5034733;28;20477;-65
2022/03/25 12:20:13;;;;;;;23.53;14.30;;;23.50;40.80;;;;;;5034049;28;20460;-71
2022/03/25 12:22:40;;;;;;;24.83;16.17;;;23.80;37.80;;;;;;5034345;28;20415;-71
2022/03/25 12:25:11;;;;;;;27.63;16.53;;;24.30;35.20;;;;;;5034697;28;20460;-71
2022/03/25 12:27:38;;;;;;;26.27;16.10;;;25.00;34.50;;;;;;5034572;28;20394;-66
2022/03/25 12:30:05;;;;;;;24.87;15.43;;;25.40;29.60;;;;;;5033904;28;20779;-71
2022/03/25 12:32:33;;;;;;;23.40;14.23;;;25.60;28.50;;;;;;5033356;28;20487;-66
2022/03/25 12:35:18;;;;;;;23.77;13.37;;;25.50;25.80;;;;;;5034041;28;20402;-66
2022/03/25 12:37:55;;;;;;;24.20;14.77;;;25.10;20.50;;;;;;5034358;28;20442;-71
2022/03/25 12:40:24;;;;;;;23.10;15.70;;;25.40;18.80;;;;;;5033623;28;20509;-65
2022/03/25 12:42:58;;;;;;;23.50;14.10;;;25.40;21.10;;;;;;5034140;28;20422;-72